Terminal Aerodrome Forecast
Issued by NWS

Current Version | Previous Version | Text Only | Print | Product List | Glossary On
Versions: 1 2 3 4 5 6 7 8 9 10 11 12 13 14 15 16 17 18 19
000
FTUS41 KPHI 282335
TAFMIV
TAF
KMIV 282335Z 2900/2924 07012G19KT 5SM -RA BR BKN015
      TEMPO 2900/2904 2SM -RA BR OVC006
     FM290400 07012G22KT 5SM -SHRA BR OVC015
     FM290700 06012G22KT 5SM -DZRA BR BKN008 OVC015
     FM291400 08012G23KT 6SM -SHRA OVC011
     FM291800 08013G26KT P6SM -SHRA OVC015=

USA.gov is the U.S. government's official web portal to all federal, state and local government web resources and services.